Time;durP1;ratioP1;P1;durP2;ratioP2;P2;SDS_P1;SDS_P2;PMS_P1;PMS_P2;Temp;Humidity;BMP_temperature;BMP_pressure;BME280_temperature;BME280_humidity;BME280_pressure;Samples;Min_cycle;Max_cycle;Signal;HPM_P1;HPM_P2
2021/08/09 00:02:00;;;;;;;;;1.25;1.25;;;;;18.89;63.79;101206.94;5052890;28;45684;-60
2021/08/09 00:04:26;;;;;;;;;1.25;0.50;;;;;18.91;63.71;101210.34;5051677;28;46536;-59
2021/08/09 00:06:51;;;;;;;;;27.00;21.00;;;;;18.88;63.63;101214.94;5053773;28;45235;-59
2021/08/09 00:09:16;;;;;;;;;29.50;25.00;;;;;18.89;63.51;101216.63;5050570;28;45272;-59
2021/08/09 00:11:42;;;;;;;;;7.75;5.75;;;;;18.86;63.88;101214.19;5055986;28;45450;-59
2021/08/09 00:14:07;;;;;;;;;2.75;1.50;;;;;18.86;63.68;101217.66;5051360;28;46160;-58
2021/08/09 00:16:32;;;;;;;;;2.50;2.50;;;;;18.83;63.79;101205.50;5051850;28;45410;-58
2021/08/09 00:18:58;;;;;;;;;1.50;1.00;;;;;18.83;63.48;101204.66;5050641;28;45283;-58
2021/08/09 00:21:23;;;;;;;;;1.75;1.75;;;;;18.83;63.71;101202.88;5052192;28;45444;-58
2021/08/09 00:23:49;;;;;;;;;1.75;1.75;;;;;18.82;63.71;101201.19;5050970;28;47137;-58
2021/08/09 00:26:14;;;;;;;;;2.50;2.50;;;;;18.82;63.75;101208.19;5053933;28;45299;-58
2021/08/09 00:28:40;;;;;;;;;2.00;1.00;;;;;18.80;63.78;101200.38;5050808;28;45647;-58
2021/08/09 00:31:05;;;;;;;;;2.00;1.50;;;;;18.75;63.91;101206.84;5051548;28;45561;-58
2021/08/09 00:33:30;;;;;;;;;2.00;0.50;;;;;18.72;63.89;101205.22;5061128;28;45376;-58
2021/08/09 00:35:56;;;;;;;;;1.75;1.75;;;;;18.64;64.14;101201.31;5060944;28;45560;-60
2021/08/09 00:38:21;;;;;;;;;2.00;1.75;;;;;18.56;64.21;101206.94;5060626;28;46348;-58
2021/08/09 00:40:47;;;;;;;;;2.75;2.25;;;;;18.56;64.38;101206.94;5059647;28;45276;-58
2021/08/09 00:43:13;;;;;;;;;3.75;3.00;;;;;18.54;64.59;101207.03;5060623;28;46122;-58
2021/08/09 00:45:38;;;;;;;;;2.75;1.50;;;;;18.50;65.10;101202.88;5059814;28;45259;-58
2021/08/09 00:48:04;;;;;;;;;5.75;3.25;;;;;18.40;65.81;101198.16;5061177;28;45270;-58
2021/08/09 00:50:30;;;;;;;;;2.00;2.00;;;;;18.31;66.27;101196.88;5060675;28;45310;-58
2021/08/09 00:52:57;;;;;;;;;4.75;2.50;;;;;18.23;66.32;101207.81;5060609;28;45370;-58
2021/08/09 00:55:23;;;;;;;;;3.50;2.25;;;;;18.22;66.65;101192.94;5060451;28;45665;-58
2021/08/09 00:57:49;;;;;;;;;2.75;2.00;;;;;18.23;66.86;101192.00;5061003;28;45313;-58
2021/08/09 01:00:14;;;;;;;;;2.00;1.50;;;;;18.28;66.43;101198.81;5060546;28;45543;-58
2021/08/09 01:02:40;;;;;;;;;2.00;2.00;;;;;18.30;66.35;101187.28;5061238;28;45993;-58
2021/08/09 01:05:08;;;;;;;;;3.00;2.00;;;;;18.31;66.33;101186.34;5060510;28;45321;-58
2021/08/09 01:08:05;;;;;;;;;5.00;2.00;;;;;18.29;66.91;101195.25;5060917;28;45319;-58
2021/08/09 01:10:46;;;;;;;;;1.75;1.75;;;;;18.19;68.00;101200.97;5041685;28;45478;-58
2021/08/09 01:13:24;;;;;;;;;3.00;2.00;;;;;18.14;67.78;101191.63;5059818;28;46315;-58
2021/08/09 01:15:56;;;;;;;;;1.75;1.50;;;;;18.12;67.40;101180.34;5059008;28;45251;-58
2021/08/09 01:18:24;;;;;;;;;6.75;2.75;;;;;18.13;67.79;101184.66;5060194;28;45413;-58
2021/08/09 01:20:56;;;;;;;;;4.75;3.00;;;;;18.11;67.76;101184.75;5059307;28;45286;-58
2021/08/09 01:23:43;;;;;;;;;3.00;2.00;;;;;18.06;67.88;101183.28;5059682;28;45435;-58
2021/08/09 01:26:37;;;;;;;;;2.50;2.00;;;;;17.99;68.92;101184.50;5058624;28;45606;-58
2021/08/09 01:29:07;;;;;;;;;2.75;2.25;;;;;17.93;68.79;101188.31;5058862;28;45272;-58
2021/08/09 01:31:42;;;;;;;;;2.25;1.00;;;;;17.88;68.70;101187.72;5059143;28;45472;-59
2021/08/09 01:34:09;;;;;;;;;5.75;2.25;;;;;17.88;68.86;101185.09;5058632;28;47089;-58
2021/08/09 01:36:36;;;;;;;;;2.00;2.00;;;;;17.86;68.62;101182.53;5058719;28;45567;-58
2021/08/09 01:39:03;;;;;;;;;3.25;2.00;;;;;17.87;69.12;101186.84;5058628;28;45499;-58
2021/08/09 01:41:29;;;;;;;;;4.50;1.00;;;;;17.82;68.91;101186.25;5059278;28;45473;-58
2021/08/09 01:43:55;;;;;;;;;3.00;2.75;;;;;17.84;68.96;101176.50;5059348;28;45328;-58
2021/08/09 01:46:22;;;;;;;;;3.00;2.00;;;;;17.89;68.74;101179.75;5059298;28;45169;-58
2021/08/09 01:48:49;;;;;;;;;2.00;2.00;;;;;17.90;69.01;101191.97;5059986;28;45347;-58
2021/08/09 01:51:15;;;;;;;;;1.75;1.75;;;;;17.89;68.86;101190.25;5060188;28;45319;-60
2021/08/09 01:53:41;;;;;;;;;2.50;2.50;;;;;17.87;68.68;101197.38;5059451;28;46182;-61
2021/08/09 01:56:11;;;;;;;;;2.75;2.25;;;;;17.90;68.76;101181.44;5059784;28;45251;-58
2021/08/09 01:58:36;;;;;;;;;5.25;2.00;;;;;17.90;68.26;101178.81;5059863;28;45399;-58
2021/08/09 02:01:04;;;;;;;;;2.00;1.25;;;;;17.90;68.42;101178.81;5059999;28;45374;-58
2021/08/09 02:03:29;;;;;;;;;1.00;1.00;;;;;17.93;68.35;101168.13;5059659;28;46570;-58
2021/08/09 02:05:56;;;;;;;;;3.00;3.00;;;;;17.96;68.55;101176.78;5059805;28;45459;-59
2021/08/09 02:08:22;;;;;;;;;1.50;1.50;;;;;17.94;68.51;101177.72;5059474;28;45491;-58
2021/08/09 02:10:55;;;;;;;;;4.75;2.75;;;;;17.91;68.64;101177.88;5059465;28;45429;-58
2021/08/09 02:13:23;;;;;;;;;2.75;2.00;;;;;17.87;68.69;101184.22;5059138;28;46337;-58
2021/08/09 02:15:53;;;;;;;;;3.25;2.00;;;;;17.87;68.58;101200.00;5059493;28;45518;-58
2021/08/09 02:18:50;;;;;;;;;3.00;3.00;;;;;17.84;68.85;101197.53;5060079;28;45346;-58
2021/08/09 02:21:21;;;;;;;;;2.00;2.00;;;;;17.79;69.36;101186.38;5042425;28;45248;-58
2021/08/09 02:24:04;;;;;;;;;2.00;1.75;;;;;17.72;69.61;101192.88;5059468;28;46489;-58
2021/08/09 02:26:35;;;;;;;;;1.25;1.00;;;;;17.69;69.79;101189.56;5047995;28;45526;-58
2021/08/09 02:29:06;;;;;;;;;1.50;1.50;;;;;17.66;70.04;101187.06;5058093;28;45245;-58
2021/08/09 02:31:33;;;;;;;;;3.00;2.25;;;;;17.59;70.10;101183.84;5059601;28;45408;-58
2021/08/09 02:34:01;;;;;;;;;3.00;3.00;;;;;17.59;70.36;101191.75;5059262;28;46288;-58
2021/08/09 02:36:26;;;;;;;;;3.75;1.75;;;;;17.56;70.41;101178.75;5059481;28;45409;-58
2021/08/09 02:38:53;;;;;;;;;1.50;1.00;;;;;17.57;70.36;101178.69;5059300;28;45429;-60
2021/08/09 02:41:19;;;;;;;;;4.00;2.00;;;;;17.59;70.47;101175.97;5059361;28;45217;-59
2021/08/09 02:43:45;;;;;;;;;3.50;2.00;;;;;17.60;70.34;101177.69;5061416;28;45835;-59
2021/08/09 02:46:11;;;;;;;;;1.75;1.00;;;;;17.60;70.35;101177.69;5062783;28;45570;-59
2021/08/09 02:48:40;;;;;;;;;3.00;3.00;;;;;17.61;70.44;101176.75;5062807;28;46013;-59
2021/08/09 02:51:06;;;;;;;;;2.50;2.00;;;;;17.59;70.51;101184.72;5062852;28;45318;-59
2021/08/09 02:53:31;;;;;;;;;2.00;2.00;;;;;17.56;70.58;101187.50;5062372;28;45364;-59
2021/08/09 02:56:00;;;;;;;;;2.00;2.00;;;;;17.54;71.07;101191.13;5062562;28;45332;-58
2021/08/09 02:58:27;;;;;;;;;2.50;1.25;;;;;17.49;71.28;101195.75;5062668;28;45284;-58
2021/08/09 03:00:57;;;;;;;;;4.25;2.75;;;;;17.45;71.48;101189.81;5062694;28;45303;-59
2021/08/09 03:03:27;;;;;;;;;4.00;1.75;;;;;17.38;72.21;101183.13;5062474;28;46186;-59
2021/08/09 03:05:55;;;;;;;;;5.50;3.00;;;;;17.35;72.25;101199.06;5062721;28;45687;-59
2021/08/09 03:08:22;;;;;;;;;5.00;2.75;;;;;17.36;72.23;101186.75;5062132;28;45445;-59
2021/08/09 03:10:48;;;;;;;;;2.75;1.00;;;;;17.37;72.34;101191.09;5062245;28;45437;-58
2021/08/09 03:13:14;;;;;;;;;6.50;1.50;;;;;17.37;72.26;101185.84;5062103;28;45223;-61
2021/08/09 03:15:41;;;;;;;;;3.00;2.00;;;;;17.39;72.17;101194.50;5061861;28;45497;-59
2021/08/09 03:18:07;;;;;;;;;2.00;1.25;;;;;17.37;72.85;101184.06;5062433;28;45543;-60
2021/08/09 03:20:33;;;;;;;;;1.50;1.00;;;;;17.29;72.91;101183.59;5062579;28;45354;-60
2021/08/09 03:22:58;;;;;;;;;1.25;1.25;;;;;17.23;73.16;101184.75;5061821;28;45438;-58
2021/08/09 03:25:23;;;;;;;;;2.50;2.00;;;;;17.18;73.37;101194.59;5062127;28;45444;-58
2021/08/09 03:27:49;;;;;;;;;2.00;2.00;;;;;17.16;73.53;101198.22;5062098;28;45526;-58
2021/08/09 03:30:16;;;;;;;;;2.25;2.00;;;;;17.11;74.28;101200.22;5061788;28;45362;-62
2021/08/09 03:32:42;;;;;;;;;7.75;1.75;;;;;17.10;74.34;101195.91;5061447;28;45307;-61
2021/08/09 03:35:07;;;;;;;;;2.75;2.00;;;;;17.03;74.47;101197.97;5061623;28;45299;-61
2021/08/09 03:37:33;;;;;;;;;1.75;1.50;;;;;17.05;74.51;101195.28;5061950;28;45295;-63
2021/08/09 03:39:58;;;;;;;;;4.75;2.00;;;;;17.08;75.32;101197.75;5061784;28;45419;-62
2021/08/09 03:42:23;;;;;;;;;3.00;2.75;;;;;17.06;74.81;101196.97;5061406;28;46258;-62
2021/08/09 03:44:49;;;;;;;;;2.75;2.00;;;;;17.01;74.73;101191.91;5062148;28;45240;-59
2021/08/09 03:47:15;;;;;;;;;2.00;2.00;;;;;17.02;74.95;101193.66;5061659;28;45289;-60
2021/08/09 03:49:40;;;;;;;;;3.25;3.25;;;;;17.00;75.31;101193.69;5061951;28;45305;-59
2021/08/09 03:52:06;;;;;;;;;5.00;2.00;;;;;16.98;75.23;101192.91;5061612;28;45383;-59
2021/08/09 03:54:31;;;;;;;;;2.50;2.50;;;;;16.94;75.78;101183.50;5060517;28;45258;-59
2021/08/09 03:56:57;;;;;;;;;5.25;2.00;;;;;16.94;75.48;101180.00;5060110;28;45505;-60
2021/08/09 03:59:22;;;;;;;;;5.00;2.75;;;;;16.94;76.04;101188.75;5061914;28;45283;-58
2021/08/09 04:01:49;;;;;;;;;6.00;3.00;;;;;16.89;76.23;101179.38;5060067;28;47764;-59
2021/08/09 04:04:14;;;;;;;;;14.25;12.25;;;;;16.92;75.95;101189.75;5058884;28;45424;-59
2021/08/09 04:06:40;;;;;;;;;10.00;6.75;;;;;16.96;75.85;101196.53;5061254;28;45490;-59
2021/08/09 04:09:08;;;;;;;;;11.00;7.75;;;;;17.00;75.55;101191.06;5061422;28;45463;-59
2021/08/09 04:11:34;;;;;;;;;3.25;2.25;;;;;17.03;75.34;101201.44;5061568;28;45962;-59
2021/08/09 04:14:01;;;;;;;;;5.75;3.00;;;;;17.07;75.16;101191.66;5062020;28;45413;-59
2021/08/09 04:16:27;;;;;;;;;2.00;2.00;;;;;17.07;74.87;101194.28;5061382;28;45503;-59
2021/08/09 04:18:52;;;;;;;;;4.00;4.00;;;;;17.08;75.35;101206.47;5060397;28;45438;-59
2021/08/09 04:21:17;;;;;;;;;4.25;2.50;;;;;17.10;75.07;101207.25;5061256;28;45285;-58
2021/08/09 04:23:43;;;;;;;;;2.00;2.00;;;;;17.10;75.31;101209.03;5061135;28;45478;-58
2021/08/09 04:26:08;;;;;;;;;3.75;3.00;;;;;17.09;75.20;101213.44;5061123;28;45297;-58
2021/08/09 04:28:33;;;;;;;;;2.00;2.00;;;;;17.08;74.95;101205.63;5061281;28;45298;-58
2021/08/09 04:30:59;;;;;;;;;4.00;4.00;;;;;17.11;75.51;101222.09;5061200;28;45317;-61
2021/08/09 04:33:24;;;;;;;;;3.50;2.25;;;;;17.10;75.35;101220.38;5061134;28;45343;-59
2021/08/09 04:35:49;;;;;;;;;4.75;3.00;;;;;17.08;76.14;101232.75;5061343;28;45350;-60
2021/08/09 04:38:15;;;;;;;;;2.00;2.00;;;;;17.02;75.82;101236.50;5060893;28;45460;-59
2021/08/09 04:40:41;;;;;;;;;3.75;3.75;;;;;16.99;76.05;101235.78;5061120;28;45342;-59
2021/08/09 04:43:06;;;;;;;;;3.25;3.25;;;;;17.01;76.08;101231.31;5071473;28;45317;-59
2021/08/09 04:45:32;;;;;;;;;3.00;3.00;;;;;17.07;76.01;101228.41;5060354;28;45327;-61
2021/08/09 04:47:57;;;;;;;;;2.00;2.00;;;;;17.14;75.79;101235.06;5060199;28;45516;-61
2021/08/09 04:50:22;;;;;;;;;3.00;3.00;;;;;17.18;75.66;101233.16;5060234;28;45224;-59
2021/08/09 04:52:48;;;;;;;;;2.75;2.75;;;;;17.15;75.90;101234.16;5060647;28;45570;-61
2021/08/09 04:55:13;;;;;;;;;5.75;3.50;;;;;17.16;75.88;101233.22;5058771;28;45595;-61
2021/08/09 04:57:39;;;;;;;;;5.25;4.00;;;;;17.18;76.26;101227.91;5058405;28;45374;-59
2021/08/09 05:00:05;;;;;;;;;2.75;2.75;;;;;17.19;75.82;101233.06;5057992;28;45461;-61
2021/08/09 05:02:31;;;;;;;;;2.50;2.50;;;;;17.23;76.03;101232.03;5058295;28;45366;-60
2021/08/09 05:04:57;;;;;;;;;2.00;2.00;;;;;17.28;75.82;101230.03;5057710;28;45298;-61
2021/08/09 05:07:23;;;;;;;;;4.00;2.50;;;;;17.27;75.56;101227.47;5057816;28;45872;-61
2021/08/09 05:09:48;;;;;;;;;4.75;4.25;;;;;17.32;75.77;101221.06;5058662;28;45496;-61
2021/08/09 05:12:13;;;;;;;;;6.00;3.00;;;;;17.32;75.54;101226.31;5059069;28;45331;-60
2021/08/09 05:14:39;;;;;;;;;2.75;2.50;;;;;17.30;75.74;101243.94;5060623;28;45382;-60
2021/08/09 05:17:04;;;;;;;;;5.00;4.00;;;;;17.25;76.05;101245.94;5060323;28;45453;-61
2021/08/09 05:19:30;;;;;;;;;2.75;2.00;;;;;17.26;76.77;101244.16;5060193;28;46068;-61
2021/08/09 05:21:55;;;;;;;;;5.00;2.00;;;;;17.24;76.32;101246.88;5060494;28;45342;-60
2021/08/09 05:24:21;;;;;;;;;3.00;2.25;;;;;17.22;76.55;101247.84;5060440;28;46085;-61
2021/08/09 05:26:46;;;;;;;;;4.75;3.00;;;;;17.25;76.39;101239.84;5059896;28;45629;-61
2021/08/09 05:29:11;;;;;;;;;7.50;4.00;;;;;17.30;76.29;101237.84;5060171;28;45383;-60
2021/08/09 05:31:38;;;;;;;;;2.00;2.00;;;;;17.30;76.22;101236.06;5060343;28;45327;-59
2021/08/09 05:34:03;;;;;;;;;2.25;2.25;;;;;17.31;76.13;101227.25;5060710;28;45157;-59
2021/08/09 05:36:30;;;;;;;;;5.25;3.25;;;;;17.31;76.64;101245.63;5060259;28;45453;-59
2021/08/09 05:38:55;;;;;;;;;2.25;2.00;;;;;17.33;76.58;101238.53;5059736;28;45229;-59
2021/08/09 05:41:21;;;;;;;;;10.75;4.00;;;;;17.33;76.49;101229.81;5059944;28;45219;-59
2021/08/09 05:43:46;;;;;;;;;3.00;3.00;;;;;17.40;76.41;101225.94;5071180;28;45164;-59
2021/08/09 05:46:12;;;;;;;;;6.25;3.25;;;;;17.51;76.35;101231.56;5059843;28;45384;-59
2021/08/09 05:48:37;;;;;;;;;2.00;2.00;;;;;17.57;75.86;101243.53;5059898;28;45486;-59
2021/08/09 05:51:02;;;;;;;;;4.50;2.00;;;;;17.63;76.04;101252.00;5060049;28;45347;-60
2021/08/09 05:53:29;;;;;;;;;3.00;3.00;;;;;17.63;75.92;101246.75;5059607;28;45246;-59
2021/08/09 05:55:55;;;;;;;;;5.00;4.75;;;;;17.68;75.72;101248.31;5059710;28;45323;-60
2021/08/09 05:58:20;;;;;;;;;6.50;5.75;;;;;17.73;75.69;101246.31;5058772;28;45254;-60
2021/08/09 06:00:46;;;;;;;;;3.75;3.00;;;;;17.70;75.68;101251.72;5059630;28;45398;-59
2021/08/09 06:03:16;;;;;;;;;3.50;2.25;;;;;17.63;75.88;101251.16;5060313;28;45327;-59
2021/08/09 06:05:42;;;;;;;;;3.75;3.75;;;;;17.58;76.25;101247.88;5059629;28;45294;-59
2021/08/09 06:08:07;;;;;;;;;3.50;3.50;;;;;17.64;75.96;101253.69;5059135;28;46372;-59
2021/08/09 06:10:32;;;;;;;;;4.00;2.00;;;;;17.76;75.89;101267.19;5058811;28;47749;-59
2021/08/09 06:12:58;;;;;;;;;4.00;3.00;;;;;17.81;75.83;101260.75;5058906;28;45291;-59
2021/08/09 06:15:23;;;;;;;;;4.25;2.25;;;;;17.88;75.47;101262.19;5059143;28;45444;-59
2021/08/09 06:17:49;;;;;;;;;6.25;4.50;;;;;17.89;75.37;101266.50;5060782;28;45317;-59
2021/08/09 06:20:14;;;;;;;;;6.75;4.25;;;;;17.92;75.43;101273.41;5063012;28;45344;-59
2021/08/09 06:22:39;;;;;;;;;3.50;1.50;;;;;17.92;75.34;101268.13;5061836;28;45326;-59
2021/08/09 06:25:05;;;;;;;;;5.00;3.75;;;;;17.98;75.28;101273.09;5062586;28;45366;-59
2021/08/09 06:27:30;;;;;;;;;6.75;3.00;;;;;17.98;74.88;101269.59;5061533;28;46198;-59
2021/08/09 06:29:56;;;;;;;;;7.00;4.00;;;;;17.98;74.66;101275.72;5062682;28;45381;-59
2021/08/09 06:32:23;;;;;;;;;4.00;4.00;;;;;18.02;74.72;101269.41;5061555;28;45268;-63
2021/08/09 06:34:48;;;;;;;;;5.25;3.50;;;;;18.07;74.79;101275.28;5062532;28;45274;-63
2021/08/09 06:37:15;;;;;;;;;3.25;3.25;;;;;18.13;74.34;101280.22;5057082;28;46438;-63
2021/08/09 06:39:40;;;;;;;;;3.00;3.00;;;;;18.11;74.69;101279.44;5057866;28;45413;-63
2021/08/09 06:42:05;;;;;;;;;4.75;3.00;;;;;18.15;74.46;101283.63;5058675;28;45408;-63
2021/08/09 06:44:32;;;;;;;;;3.25;3.25;;;;;18.18;74.61;101283.47;5059689;28;45299;-63
2021/08/09 06:46:58;;;;;;;;;7.50;3.00;;;;;18.20;74.59;101286.84;5061211;28;46386;-63
2021/08/09 06:49:24;;;;;;;;;6.75;6.75;;;;;18.24;74.86;101279.69;5062300;28;45333;-63
2021/08/09 06:51:49;;;;;;;;;6.25;4.25;;;;;18.27;74.93;101282.16;5061699;28;45546;-62
2021/08/09 06:54:14;;;;;;;;;5.50;3.75;;;;;18.29;75.32;101287.34;5060953;28;46338;-62
2021/08/09 06:56:40;;;;;;;;;5.00;4.50;;;;;18.34;74.67;101285.31;5061474;28;46073;-63
2021/08/09 06:59:05;;;;;;;;;5.25;3.25;;;;;18.39;74.91;101286.78;5060993;28;45330;-62
2021/08/09 07:01:30;;;;;;;;;3.75;3.00;;;;;18.36;75.72;101278.19;5062125;28;45287;-63
2021/08/09 07:03:56;;;;;;;;;9.00;4.25;;;;;18.34;75.57;101286.16;5061269;28;45331;-61
2021/08/09 07:06:23;;;;;;;;;8.50;4.00;;;;;18.36;76.03;101289.56;5056765;28;46533;-61
2021/08/09 07:08:50;;;;;;;;;4.00;3.25;;;;;18.33;75.72;101288.88;5060600;28;45266;-62
2021/08/09 07:11:16;;;;;;;;;6.00;4.25;;;;;18.33;76.23;101292.38;5063092;28;45287;-62
2021/08/09 07:13:41;;;;;;;;;5.25;4.25;;;;;18.36;75.97;101289.56;5061893;28;45193;-63
2021/08/09 07:16:06;;;;;;;;;4.75;4.00;;;;;18.45;75.82;101294.38;5060902;28;45977;-61
2021/08/09 07:18:33;;;;;;;;;5.50;3.75;;;;;18.55;75.54;101295.59;5061693;28;45326;-61
2021/08/09 07:20:58;;;;;;;;;5.50;3.00;;;;;18.63;76.00;101297.88;5062505;28;45541;-59
2021/08/09 07:23:24;;;;;;;;;5.00;3.00;;;;;18.70;75.56;101288.72;5062347;28;45385;-59
2021/08/09 07:25:49;;;;;;;;;3.25;2.75;;;;;18.74;75.63;101286.78;5061956;28;45394;-57
2021/08/09 07:28:14;;;;;;;;;5.25;4.25;;;;;18.74;75.51;101299.94;5061509;28;45301;-59
2021/08/09 07:30:40;;;;;;;;;8.75;4.00;;;;;18.80;75.42;101299.59;5062362;28;45271;-59
2021/08/09 07:33:05;;;;;;;;;4.75;4.75;;;;;18.80;76.03;101289.91;5062463;28;45389;-59
2021/08/09 07:35:31;;;;;;;;;3.00;3.00;;;;;18.87;76.04;101314.16;5061934;28;45357;-60
2021/08/09 07:37:56;;;;;;;;;4.00;4.00;;;;;18.82;75.20;101319.69;5061931;28;45396;-60
2021/08/09 07:40:22;;;;;;;;;4.00;3.00;;;;;18.83;75.63;101321.38;5061879;28;45338;-60
2021/08/09 07:42:47;;;;;;;;;6.25;4.50;;;;;18.96;75.86;101312.81;5062033;28;45327;-60
2021/08/09 07:45:13;;;;;;;;;7.75;3.00;;;;;19.10;75.99;101318.22;5061377;28;45330;-60
2021/08/09 07:47:38;;;;;;;;;8.75;5.25;;;;;19.19;75.63;101322.13;5062215;28;45358;-59
2021/08/09 07:50:04;;;;;;;;;5.25;3.75;;;;;19.32;75.44;101317.88;5062182;28;45176;-60
2021/08/09 07:52:29;;;;;;;;;4.00;3.00;;;;;19.43;75.31;101323.44;5061963;28;45378;-59
2021/08/09 07:54:55;;;;;;;;;14.75;7.75;;;;;19.42;73.86;101319.94;5061415;28;45483;-60
2021/08/09 07:57:21;;;;;;;;;4.50;4.00;;;;;19.28;74.44;101317.22;5056578;28;45224;-64
2021/08/09 07:59:46;;;;;;;;;6.75;3.75;;;;;19.20;74.22;101314.13;5061749;28;45192;-62
2021/08/09 08:02:13;;;;;;;;;5.75;4.25;;;;;19.19;75.12;101314.22;5060681;28;45215;-62
2021/08/09 08:04:38;;;;;;;;;7.25;5.00;;;;;19.30;74.99;101309.22;5061457;28;46363;-63
2021/08/09 08:07:04;;;;;;;;;4.75;4.50;;;;;19.42;74.67;101319.06;5055364;28;45323;-59
2021/08/09 08:09:29;;;;;;;;;5.00;3.25;;;;;19.48;74.63;101323.19;5052609;28;45474;-66
2021/08/09 08:11:55;;;;;;;;;5.75;4.00;;;;;19.41;73.72;101317.38;5061245;28;45314;-63
2021/08/09 08:14:20;;;;;;;;;9.75;6.50;;;;;19.42;74.82;101324.34;5061151;28;46045;-61
2021/08/09 08:16:46;;;;;;;;;5.00;4.75;;;;;19.50;74.42;101323.94;5061148;28;45308;-60
2021/08/09 08:19:12;;;;;;;;;8.00;3.50;;;;;19.53;74.55;101318.50;5061489;28;45307;-62
2021/08/09 08:21:37;;;;;;;;;5.00;4.25;;;;;19.52;74.66;101320.28;5061500;28;45306;-63
2021/08/09 08:24:02;;;;;;;;;8.50;5.00;;;;;19.56;74.30;101318.34;5060934;28;46283;-57
2021/08/09 08:26:28;;;;;;;;;7.00;6.00;;;;;19.62;74.79;101325.91;5061162;28;45216;-58
2021/08/09 08:28:53;;;;;;;;;6.50;4.00;;;;;19.69;73.80;101330.78;5060767;28;45425;-64
2021/08/09 08:31:19;;;;;;;;;5.75;4.00;;;;;19.75;74.08;101327.78;5061066;28;45476;-61
2021/08/09 08:33:44;;;;;;;;;5.75;5.00;;;;;19.82;73.49;101316.88;5060971;28;46135;-64
2021/08/09 08:36:09;;;;;;;;;5.00;4.00;;;;;19.81;72.94;101317.81;5061027;28;45314;-59
2021/08/09 08:38:36;;;;;;;;;7.50;5.25;;;;;19.76;72.56;101333.91;5060788;28;45243;-59
2021/08/09 08:41:04;;;;;;;;;10.25;7.75;;;;;19.62;73.13;101320.63;5059706;28;45441;-62
2021/08/09 08:43:31;;;;;;;;;5.00;3.25;;;;;19.74;73.68;101330.50;5060545;28;46394;-59
2021/08/09 08:45:58;;;;;;;;;4.50;4.50;;;;;19.86;73.06;101316.63;5060506;28;45662;-62
2021/08/09 08:48:25;;;;;;;;;4.25;4.25;;;;;19.99;72.13;101319.41;5060275;28;45207;-63
2021/08/09 08:50:51;;;;;;;;;5.00;3.00;;;;;20.09;71.33;101309.19;5060685;28;45418;-68
2021/08/09 08:53:17;;;;;;;;;5.75;5.50;;;;;20.14;71.21;101313.25;5060317;28;45473;-64
2021/08/09 08:55:42;;;;;;;;;5.50;4.00;;;;;20.29;71.54;101319.44;5060947;28;45394;-59
2021/08/09 08:58:07;;;;;;;;;5.50;3.50;;;;;20.36;70.06;101318.13;5060614;28;45450;-58
2021/08/09 09:00:37;;;;;;;;;6.50;4.75;;;;;20.43;70.56;101332.72;5060707;28;45365;-58
2021/08/09 09:03:14;;;;;;;;;3.00;3.00;;;;;20.52;69.41;101344.50;5060295;28;46070;-58
2021/08/09 09:05:40;;;;;;;;;6.75;6.25;;;;;20.49;68.90;101334.13;5060724;28;45222;-59
2021/08/09 09:08:05;;;;;;;;;1.00;1.00;;;;;20.54;68.44;101342.63;5060306;28;45284;-59
2021/08/09 09:10:36;;;;;;;;;5.00;4.75;;;;;20.51;67.85;101337.53;5059701;28;45207;-57
2021/08/09 09:13:15;;;;;;;;;4.00;4.00;;;;;20.66;68.99;101347.19;5057969;28;47552;-57
2021/08/09 09:15:53;;;;;;;;;8.50;5.00;;;;;20.89;67.80;101348.44;5058329;28;45367;-57
2021/08/09 09:18:18;;;;;;;;;5.00;4.00;;;;;21.00;68.35;101347.75;5058104;28;45790;-58
2021/08/09 09:20:44;;;;;;;;;5.25;5.00;;;;;21.28;67.64;101357.53;5059648;28;45350;-57
2021/08/09 09:23:30;;;;;;;;;3.00;2.75;;;;;21.54;66.99;101357.56;5058950;28;45407;-57
2021/08/09 09:25:56;;;;;;;;;3.00;1.00;;;;;21.79;65.18;101359.50;5058866;28;45285;-57
2021/08/09 09:28:24;;;;;;;;;3.00;3.00;;;;;21.95;65.31;101353.22;5059294;28;45433;-58
2021/08/09 09:30:50;;;;;;;;;5.25;2.50;;;;;22.16;63.46;101355.31;5059092;28;45248;-57
2021/08/09 09:33:16;;;;;;;;;9.25;5.50;;;;;22.11;62.43;101356.59;5059342;28;46972;-57
2021/08/09 09:35:41;;;;;;;;;4.00;4.00;;;;;22.15;62.53;101366.88;5059649;28;45224;-62
2021/08/09 09:38:07;;;;;;;;;3.00;3.00;;;;;22.21;60.08;101364.75;5060053;28;45977;-58
2021/08/09 09:40:40;;;;;;;;;6.00;3.50;;;;;22.20;61.41;101361.25;5059707;28;45749;-61
2021/08/09 09:43:20;;;;;;;;;9.00;4.25;;;;;22.44;61.61;101358.81;5061349;28;45638;-57
2021/08/09 09:46:03;;;;;;;;;4.25;3.50;;;;;22.80;61.55;101359.88;5057964;28;45561;-57
2021/08/09 09:48:37;;;;;;;;;6.50;5.00;;;;;23.14;59.84;101359.25;5058386;28;45306;-57
2021/08/09 09:51:14;;;;;;;;;8.50;5.00;;;;;23.11;58.44;101370.09;5059051;28;45461;-59
2021/08/09 09:53:41;;;;;;;;;9.75;6.75;;;;;23.06;59.11;101373.06;5056069;28;47159;-58
2021/08/09 09:56:09;;;;;;;;;9.25;7.75;;;;;23.00;57.57;101385.88;5057491;28;45386;-58
2021/08/09 09:58:36;;;;;;;;;9.50;8.50;;;;;22.95;58.26;101382.72;5058329;28;45767;-65
2021/08/09 10:01:03;;;;;;;;;7.75;5.75;;;;;22.76;56.22;101378.63;5059258;28;45395;-63
2021/08/09 10:03:34;;;;;;;;;5.00;3.00;;;;;22.60;56.01;101382.44;5059340;28;45279;-63
2021/08/09 10:06:03;;;;;;;;;4.50;2.00;;;;;22.27;57.11;101382.91;5059592;28;45289;-63
2021/08/09 10:08:33;;;;;;;;;2.75;2.75;;;;;22.12;58.53;101375.00;5047075;28;45368;-60
2021/08/09 10:11:02;;;;;;;;;4.25;3.25;;;;;22.17;59.02;101375.56;5058253;28;45347;-60
2021/08/09 10:13:31;;;;;;;;;18.75;11.75;;;;;22.22;58.67;101379.69;5057628;28;46176;-64
2021/08/09 10:16:01;;;;;;;;;6.75;5.00;;;;;22.06;58.78;101375.44;5058348;28;45781;-65
2021/08/09 10:18:30;;;;;;;;;10.00;7.00;;;;;21.91;59.21;101381.69;5059037;28;45386;-61
2021/08/09 10:20:57;;;;;;;;;13.75;10.50;;;;;21.97;60.01;101375.13;5058192;28;45486;-62
2021/08/09 10:23:43;;;;;;;;;16.25;13.00;;;;;22.01;59.60;101374.81;5058471;28;46231;-65
2021/08/09 10:26:14;;;;;;;;;9.25;6.00;;;;;22.01;59.96;101381.91;5057829;28;45643;-62
2021/08/09 10:28:54;;;;;;;;;5.50;4.50;;;;;22.17;59.81;101369.41;5057917;28;45381;-62
2021/08/09 10:31:47;;;;;;;;;6.25;5.00;;;;;22.34;58.51;101378.88;5058764;28;45440;-64
2021/08/09 10:34:31;;;;;;;;;2.25;2.25;;;;;22.39;57.78;101382.06;5057805;28;46183;-62
2021/08/09 10:37:10;;;;;;;;;1.00;1.00;;;;;22.36;58.34;101371.69;5058090;28;45427;-61
2021/08/09 10:39:58;;;;;;;;;4.00;3.00;;;;;22.32;58.15;101364.91;5058732;28;45294;-63
2021/08/09 10:42:40;;;;;;;;;9.50;4.50;;;;;22.37;58.35;101365.44;5057934;28;45205;-63
2021/08/09 10:45:32;;;;;;;;;4.00;4.00;;;;;22.51;58.27;101360.06;5057403;28;46024;-63
2021/08/09 10:47:58;;;;;;;;;4.75;2.50;;;;;22.59;57.81;101368.34;5033934;28;45528;-63
2021/08/09 10:50:26;;;;;;;;;4.25;4.25;;;;;22.71;57.07;101367.50;5058671;28;45567;-59
2021/08/09 10:52:53;;;;;;;;;17.75;8.00;;;;;22.70;57.04;101367.63;5057315;28;45330;-60
2021/08/09 10:55:30;;;;;;;;;3.50;3.50;;;;;22.77;55.54;101361.78;5057948;28;46390;-62
2021/08/09 10:58:04;;;;;;;;;4.00;3.00;;;;;22.82;55.47;101358.84;5056450;28;46053;-61
2021/08/09 11:00:39;;;;;;;;;6.25;3.50;;;;;22.82;55.83;101366.78;5046289;28;45508;-62
2021/08/09 11:03:05;;;;;;;;;5.50;3.50;;;;;22.78;56.06;101363.47;5057318;28;45564;-64
2021/08/09 11:05:31;;;;;;;;;3.00;3.00;;;;;22.83;54.37;101362.38;5061417;28;45364;-66
2021/08/09 11:08:18;;;;;;;;;7.50;5.50;;;;;22.74;55.26;101361.16;5061235;28;45449;-66
2021/08/09 11:10:56;;;;;;;;;3.75;3.00;;;;;22.73;55.02;101362.97;5060420;28;45468;-69
2021/08/09 11:13:23;;;;;;;;;5.75;4.25;;;;;22.70;55.30;101357.88;5060807;28;45350;-64
2021/08/09 11:16:07;;;;;;;;;4.25;3.75;;;;;23.01;55.97;101361.91;5058313;28;48022;-63
2021/08/09 11:18:35;;;;;;;;;4.75;4.00;;;;;23.27;54.35;101359.25;5060009;28;45536;-66
2021/08/09 11:21:11;;;;;;;;;3.25;2.75;;;;;23.41;53.47;101347.66;5058798;28;45342;-68
2021/08/09 11:23:45;;;;;;;;;5.25;3.25;;;;;23.38;53.08;101354.03;5060683;28;45377;-69
2021/08/09 11:26:21;;;;;;;;;3.00;3.00;;;;;23.37;52.17;101357.63;5059643;28;45444;-68
2021/08/09 11:28:57;;;;;;;;;4.75;2.00;;;;;23.28;51.69;101345.03;5059473;28;45305;-69